createdAt,value
2022-12-24T00:00:55.599Z,0
2022-12-24T00:01:54.627Z,0
2022-12-24T00:02:55.218Z,0
2022-12-24T00:03:55.035Z,0
2022-12-24T00:05:03.299Z,0
2022-12-24T00:05:55.075Z,0
2022-12-24T00:06:55.678Z,0
2022-12-24T00:07:54.552Z,0
2022-12-24T00:08:54.791Z,0
2022-12-24T00:09:54.768Z,0
2022-12-24T00:10:54.796Z,0
2022-12-24T00:11:54.770Z,0
2022-12-24T00:12:54.502Z,0
2022-12-24T00:13:54.728Z,0
2022-12-24T00:14:54.960Z,0
2022-12-24T00:15:54.727Z,0
2022-12-24T00:16:55.385Z,0
2022-12-24T00:17:54.418Z,0
2022-12-24T00:18:54.936Z,0
2022-12-24T00:19:54.391Z,0
2022-12-24T00:20:54.919Z,0
2022-12-24T00:21:54.872Z,0
2022-12-24T00:22:54.599Z,0
2022-12-24T00:23:54.641Z,0
2022-12-24T00:24:54.827Z,0
2022-12-24T00:25:55.383Z,0
2022-12-24T00:26:54.553Z,0
2022-12-24T00:27:54.538Z,0
2022-12-24T00:28:54.784Z,0
2022-12-24T00:29:54.531Z,0
2022-12-24T00:30:55.008Z,0
2022-12-24T00:31:54.486Z,0
2022-12-24T00:32:54.549Z,0
2022-12-24T00:33:53.940Z,0
2022-12-24T00:34:55.406Z,0
2022-12-24T00:35:54.423Z,0
2022-12-24T00:36:54.699Z,0
2022-12-24T00:37:54.379Z,0
2022-12-24T00:38:59.074Z,0
2022-12-24T00:39:54.642Z,0
2022-12-24T00:40:54.607Z,0
2022-12-24T00:41:54.591Z,0
2022-12-24T00:42:54.580Z,0
2022-12-24T00:43:54.310Z,0
2022-12-24T00:44:54.557Z,0
2022-12-24T00:45:54.529Z,0
2022-12-24T00:46:54.412Z,0
2022-12-24T00:47:54.282Z,0
2022-12-24T00:48:54.671Z,0
2022-12-24T00:49:54.486Z,0
2022-12-24T00:50:54.628Z,0
2022-12-24T00:51:54.480Z,0
2022-12-24T00:52:55.245Z,0
2022-12-24T00:53:54.434Z,0
2022-12-24T00:54:53.925Z,0
2022-12-24T00:55:54.469Z,0
2022-12-24T00:56:54.142Z,0
2022-12-24T00:57:53.863Z,0
2022-12-24T00:58:54.159Z,0
2022-12-24T00:59:54.102Z,0
2022-12-24T01:00:54.085Z,0
2022-12-24T01:01:55.833Z,0
2022-12-24T01:02:54.935Z,0
2022-12-24T01:03:54.808Z,0
2022-12-24T01:04:54.118Z,0
2022-12-24T01:05:54.275Z,0
2022-12-24T01:06:54.448Z,0
2022-12-24T01:07:54.444Z,0
2022-12-24T01:08:54.749Z,0
2022-12-24T01:09:54.403Z,0
2022-12-24T01:10:54.441Z,0
2022-12-24T01:11:54.374Z,0
2022-12-24T01:12:54.626Z,0
2022-12-24T01:13:54.340Z,0
2022-12-24T01:14:54.349Z,0
2022-12-24T01:15:54.349Z,0
2022-12-24T01:16:54.302Z,0
2022-12-24T01:17:54.546Z,0
2022-12-24T01:18:54.047Z,0
2022-12-24T01:19:55.293Z,0
2022-12-24T01:20:54.323Z,0
2022-12-24T01:21:54.266Z,0
2022-12-24T01:22:53.961Z,0
2022-12-24T01:23:54.448Z,0
2022-12-24T01:24:54.487Z,0
2022-12-24T01:25:53.937Z,0
2022-12-24T01:26:54.416Z,0
2022-12-24T01:27:54.143Z,0
2022-12-24T01:28:55.592Z,0
2022-12-24T01:29:55.000Z,0
2022-12-24T01:30:55.370Z,0
2022-12-24T01:31:55.049Z,0
2022-12-24T01:32:54.972Z,0
2022-12-24T01:34:27.021Z,0
2022-12-24T01:34:54.926Z,0
2022-12-24T01:35:54.907Z,0
2022-12-24T01:36:55.260Z,0
2022-12-24T01:37:55.196Z,0
2022-12-24T01:38:55.197Z,0
2022-12-24T01:39:55.106Z,0
2022-12-24T01:40:55.143Z,0
2022-12-24T01:41:55.107Z,0
2022-12-24T01:42:54.809Z,0
2022-12-24T01:43:55.073Z,0
2022-12-24T01:44:54.528Z,0
2022-12-24T01:45:56.027Z,0
2022-12-24T01:46:54.938Z,0
2022-12-24T01:47:54.781Z,0
2022-12-24T01:48:54.987Z,0
2022-12-24T01:49:54.735Z,0
2022-12-24T01:50:54.722Z,0
2022-12-24T01:51:54.929Z,0
2022-12-24T01:52:55.011Z,0
2022-12-24T01:53:54.943Z,0
2022-12-24T01:54:55.654Z,0
2022-12-24T01:55:54.905Z,0
2022-12-24T01:56:56.403Z,0
2022-12-24T01:57:54.601Z,0
2022-12-24T01:58:54.593Z,0
2022-12-24T01:59:54.575Z,0
2022-12-24T02:00:54.588Z,0
2022-12-24T02:01:55.365Z,0
2022-12-24T02:02:55.345Z,0
2022-12-24T02:03:54.907Z,0
2022-12-24T02:04:54.505Z,0
2022-12-24T02:05:54.837Z,0
2022-12-24T02:06:54.468Z,0
2022-12-24T02:07:54.480Z,0
2022-12-24T02:08:54.818Z,0
2022-12-24T02:09:54.723Z,0
2022-12-24T02:10:54.673Z,0
2022-12-24T02:11:54.397Z,0
2022-12-24T02:12:54.430Z,0
2022-12-24T02:13:54.648Z,0
2022-12-24T02:14:54.379Z,0
2022-12-24T02:15:54.369Z,0
2022-12-24T02:16:54.627Z,0
2022-12-24T02:17:54.349Z,0
2022-12-24T02:18:54.567Z,0
2022-12-24T02:19:54.556Z,0
2022-12-24T02:20:54.271Z,0
2022-12-24T02:21:54.085Z,0
2022-12-24T02:22:54.534Z,0
2022-12-24T02:23:54.244Z,0
2022-12-24T02:24:54.557Z,0
2022-12-24T02:25:53.947Z,0
2022-12-24T02:26:54.201Z,0
2022-12-24T02:27:54.194Z,0
2022-12-24T02:28:54.441Z,0
2022-12-24T02:29:54.216Z,0
2022-12-24T02:30:54.411Z,0
2022-12-24T02:31:54.198Z,0
2022-12-24T02:32:53.857Z,0
2022-12-24T02:33:54.356Z,0
2022-12-24T02:34:54.079Z,0
2022-12-24T02:35:54.084Z,0
2022-12-24T02:36:54.053Z,0
2022-12-24T02:37:54.062Z,0
2022-12-24T02:38:53.809Z,0
2022-12-24T02:39:54.313Z,0
2022-12-24T02:40:54.328Z,0
2022-12-24T02:41:54.246Z,0
2022-12-24T02:42:53.966Z,0
2022-12-24T02:43:53.972Z,0
2022-12-24T02:44:54.217Z,0
2022-12-24T02:46:02.062Z,0
2022-12-24T02:46:54.066Z,0
2022-12-24T02:47:53.883Z,0
2022-12-24T02:48:53.885Z,0
2022-12-24T02:49:53.916Z,0
2022-12-24T02:50:54.092Z,0
2022-12-24T02:51:53.829Z,0
2022-12-24T02:52:54.188Z,0
2022-12-24T02:53:54.064Z,0
2022-12-24T02:54:53.811Z,0
2022-12-24T02:55:53.775Z,0
2022-12-24T02:56:54.144Z,0
2022-12-24T02:57:54.025Z,0
2022-12-24T02:58:54.030Z,0
2022-12-24T02:59:53.999Z,0
2022-12-24T03:00:54.266Z,0
2022-12-24T03:01:54.186Z,0
2022-12-24T03:02:54.257Z,0
2022-12-24T03:03:53.666Z,0
2022-12-24T03:04:53.932Z,0
2022-12-24T03:05:53.911Z,0
2022-12-24T03:06:53.885Z,0
2022-12-24T03:07:53.590Z,0
2022-12-24T03:08:53.343Z,0
2022-12-24T03:09:53.574Z,0
2022-12-24T03:10:53.564Z,0
2022-12-24T03:11:53.566Z,0
2022-12-24T03:12:53.881Z,0
2022-12-24T03:13:53.528Z,0
2022-12-24T03:14:53.242Z,0
2022-12-24T03:15:53.738Z,0
2022-12-24T03:16:53.847Z,0
2022-12-24T03:17:53.712Z,0
2022-12-24T03:18:53.709Z,0
2022-12-24T03:19:53.433Z,0
2022-12-24T03:20:53.418Z,0
2022-12-24T03:21:53.414Z,0
2022-12-24T03:22:53.384Z,0
2022-12-24T03:23:53.741Z,0
2022-12-24T03:24:53.105Z,0
2022-12-24T03:25:53.342Z,0
2022-12-24T03:26:53.342Z,0
2022-12-24T03:27:53.315Z,0
2022-12-24T03:28:53.382Z,0
2022-12-24T03:29:53.275Z,0
2022-12-24T03:30:53.291Z,0
2022-12-24T03:31:53.485Z,0
2022-12-24T03:32:53.593Z,0
2022-12-24T03:50:07.440Z,0
2022-12-24T03:51:06.770Z,0
2022-12-24T03:52:07.011Z,0
2022-12-24T03:53:07.238Z,0
2022-12-24T03:54:07.197Z,0
2022-12-24T03:55:07.249Z,0
2022-12-24T03:56:06.646Z,0
2022-12-24T03:57:06.620Z,0
2022-12-24T03:58:06.660Z,0
2022-12-24T03:59:07.165Z,0
2022-12-24T04:00:06.911Z,0
2022-12-24T04:01:07.097Z,0
2022-12-24T04:02:08.135Z,0
2022-12-24T04:03:07.242Z,0
2022-12-24T04:04:07.030Z,0
2022-12-24T04:05:07.076Z,0
2022-12-24T04:06:07.124Z,0
2022-12-24T04:07:06.742Z,0
2022-12-24T04:08:06.727Z,0
2022-12-24T04:09:06.711Z,0
2022-12-24T04:10:06.948Z,0
2022-12-24T04:11:14.457Z,0
2022-12-24T04:12:06.658Z,0
2022-12-24T04:13:06.674Z,0
2022-12-24T04:14:06.889Z,0
2022-12-24T04:15:06.639Z,0
2022-12-24T04:16:07.073Z,0
2022-12-24T04:17:07.111Z,0
2022-12-24T04:18:06.857Z,0
2022-12-24T04:19:06.814Z,0
2022-12-24T04:20:06.285Z,0
2022-12-24T04:21:06.533Z,0
2022-12-24T04:22:06.879Z,0
2022-12-24T04:23:06.226Z,0
2022-12-24T04:24:06.483Z,0
2022-12-24T04:25:06.548Z,0
2022-12-24T04:26:06.739Z,0
2022-12-24T04:27:06.186Z,0
2022-12-24T04:28:06.432Z,0
2022-12-24T04:29:06.670Z,0
2022-12-24T04:30:05.948Z,0
2022-12-24T04:31:06.418Z,0
2022-12-24T04:32:06.733Z,0
2022-12-24T04:33:06.597Z,0
2022-12-24T04:34:06.332Z,0
2022-12-24T04:35:06.316Z,0
2022-12-24T04:36:06.586Z,0
2022-12-24T04:37:06.308Z,0
2022-12-24T04:38:06.640Z,0
2022-12-24T04:39:06.248Z,0
2022-12-24T04:40:06.249Z,0
2022-12-24T04:41:05.979Z,0
2022-12-24T04:42:05.949Z,0
2022-12-24T04:43:06.215Z,0
2022-12-24T04:44:06.425Z,0
2022-12-24T04:45:06.418Z,0
2022-12-24T04:46:06.466Z,0
2022-12-24T04:47:06.388Z,0
2022-12-24T04:48:06.372Z,0
2022-12-24T04:49:06.493Z,0
2022-12-24T04:50:06.331Z,0
2022-12-24T04:51:06.088Z,0
2022-12-24T04:52:06.319Z,0
2022-12-24T04:53:06.297Z,0
2022-12-24T04:54:06.370Z,0
2022-12-24T04:55:06.056Z,0
2022-12-24T04:56:06.266Z,0
2022-12-24T04:57:06.215Z,0
2022-12-24T04:58:05.955Z,0
2022-12-24T04:59:06.220Z,0
2022-12-24T05:00:05.932Z,0
2022-12-24T05:01:06.318Z,0
2022-12-24T05:02:07.271Z,0
2022-12-24T05:03:05.976Z,0
2022-12-24T05:04:06.137Z,0
2022-12-24T05:05:05.849Z,0
2022-12-24T05:06:08.793Z,0
2022-12-24T05:07:06.116Z,0
2022-12-24T05:08:06.069Z,0
2022-12-24T05:09:05.845Z,0
2022-12-24T05:10:06.136Z,0
2022-12-24T05:11:05.840Z,0
2022-12-24T05:12:05.487Z,0
2022-12-24T05:13:05.494Z,0
2022-12-24T05:14:06.002Z,0
2022-12-24T05:15:05.707Z,0
2022-12-24T05:16:05.990Z,0
2022-12-24T05:17:05.765Z,0
2022-12-24T05:18:05.972Z,0
2022-12-24T05:19:05.921Z,0
2022-12-24T05:20:05.700Z,0
2022-12-24T05:21:05.623Z,0
2022-12-24T05:22:05.897Z,0
2022-12-24T05:23:05.609Z,0
2022-12-24T05:24:05.340Z,0
2022-12-24T05:25:05.653Z,0
2022-12-24T05:26:05.914Z,0
2022-12-24T05:27:05.810Z,0
2022-12-24T05:28:05.510Z,0
2022-12-24T05:29:05.534Z,0
2022-12-24T05:30:05.268Z,0
2022-12-24T05:31:05.969Z,0
2022-12-24T05:32:05.693Z,0
2022-12-24T05:33:05.715Z,0
2022-12-24T05:34:05.787Z,0
2022-12-24T05:35:05.717Z,0
2022-12-24T05:36:05.467Z,0
2022-12-24T05:37:05.393Z,0
2022-12-24T05:38:05.119Z,0
2022-12-24T05:39:08.571Z,0
2022-12-24T05:40:05.336Z,0
2022-12-24T05:41:05.062Z,0
2022-12-24T05:42:05.687Z,0
2022-12-24T05:43:05.281Z,0
2022-12-24T05:44:05.031Z,0
2022-12-24T05:45:05.000Z,0
2022-12-24T05:46:05.412Z,0
2022-12-24T05:47:05.486Z,0
2022-12-24T05:48:04.951Z,0
2022-12-24T05:49:05.479Z,0
2022-12-24T05:50:05.252Z,0
2022-12-24T05:51:05.153Z,0
2022-12-24T05:52:05.172Z,0
2022-12-24T05:53:05.046Z,0
2022-12-24T05:57:26.438Z,0
2022-12-24T05:58:26.302Z,0
2022-12-24T05:59:26.308Z,0
2022-12-24T06:00:26.271Z,0
2022-12-24T06:01:26.356Z,0
2022-12-24T06:02:25.995Z,0
2022-12-24T06:03:26.232Z,0
2022-12-24T06:04:33.935Z,0
2022-12-24T06:05:26.235Z,0
2022-12-24T06:06:26.216Z,0
2022-12-24T06:07:26.193Z,0
2022-12-24T06:08:25.910Z,0
2022-12-24T06:09:25.931Z,0
2022-12-24T06:10:25.975Z,0
2022-12-24T06:11:25.881Z,0
2022-12-24T06:12:26.132Z,0
2022-12-24T06:13:26.273Z,0
2022-12-24T06:14:25.859Z,0
2022-12-24T06:15:31.107Z,0
2022-12-24T06:16:26.587Z,0
2022-12-24T06:17:26.031Z,0
2022-12-24T06:18:25.532Z,0
2022-12-24T06:19:25.997Z,0
2022-12-24T06:20:25.509Z,0
2022-12-24T06:21:25.840Z,0
2022-12-24T06:22:25.978Z,0
2022-12-24T06:23:25.934Z,0
2022-12-24T06:24:25.668Z,0
2022-12-24T06:25:26.433Z,0
2022-12-24T06:26:25.639Z,0
2022-12-24T06:27:25.895Z,0
2022-12-24T06:28:25.860Z,0
2022-12-24T06:29:27.397Z,0
2022-12-24T06:30:26.252Z,0
2022-12-24T06:31:26.303Z,0
2022-12-24T06:32:25.833Z,0
2022-12-24T06:33:25.544Z,0
2022-12-24T06:34:25.779Z,0
2022-12-24T06:35:25.512Z,0
2022-12-24T06:36:25.302Z,0
2022-12-24T06:37:25.798Z,0
2022-12-24T06:38:25.487Z,0
2022-12-24T06:39:25.744Z,0
2022-12-24T06:40:25.431Z,4
2022-12-24T06:41:25.677Z,4
2022-12-24T06:42:25.664Z,4
2022-12-24T06:43:25.670Z,0
2022-12-24T06:44:25.377Z,4
2022-12-24T06:45:25.728Z,4
2022-12-24T06:46:25.429Z,0
2022-12-24T06:47:25.103Z,8
2022-12-24T06:48:25.140Z,4
2022-12-24T06:49:25.092Z,8
2022-12-24T06:50:25.541Z,12
2022-12-24T06:51:25.264Z,12
2022-12-24T06:52:25.544Z,16
2022-12-24T06:53:25.261Z,24
2022-12-24T06:54:25.482Z,28
2022-12-24T06:55:25.210Z,28
2022-12-24T06:56:24.715Z,32
2022-12-24T06:57:25.199Z,40
2022-12-24T06:58:25.422Z,44
2022-12-24T06:59:25.166Z,52
2022-12-24T07:00:25.145Z,60
2022-12-24T07:01:26.264Z,64
2022-12-24T07:02:26.176Z,72
2022-12-24T07:03:25.369Z,80
2022-12-24T07:04:27.978Z,88
2022-12-24T07:05:25.592Z,96
2022-12-24T07:06:25.838Z,104
2022-12-24T07:07:25.549Z,112
2022-12-24T07:08:25.530Z,124
2022-12-24T07:09:26.040Z,136
2022-12-24T07:10:25.769Z,148
2022-12-24T07:11:26.017Z,156
2022-12-24T07:12:25.731Z,168
2022-12-24T07:13:25.721Z,176
2022-12-24T07:14:25.956Z,192
2022-12-24T07:15:25.728Z,204
2022-12-24T07:16:26.366Z,212
2022-12-24T07:17:26.631Z,232
2022-12-24T07:18:25.893Z,244
2022-12-24T07:19:25.639Z,260
2022-12-24T07:20:25.601Z,272
2022-12-24T07:21:25.869Z,288
2022-12-24T07:22:25.844Z,304
2022-12-24T07:23:25.062Z,320
2022-12-24T07:24:25.557Z,340
2022-12-24T07:25:25.787Z,364
2022-12-24T07:26:25.519Z,384
2022-12-24T07:27:25.511Z,400
2022-12-24T07:28:33.010Z,424
2022-12-24T07:29:25.493Z,448
2022-12-24T07:30:25.226Z,472
2022-12-24T07:31:25.757Z,536
2022-12-24T07:32:25.168Z,620
2022-12-24T07:33:25.763Z,660
2022-12-24T07:34:25.667Z,704
2022-12-24T07:35:25.649Z,716
2022-12-24T07:36:25.635Z,708
2022-12-24T07:37:25.360Z,708
2022-12-24T07:38:25.329Z,688
2022-12-24T07:39:25.314Z,720
2022-12-24T07:40:25.304Z,796
2022-12-24T07:41:25.290Z,868
2022-12-24T07:42:25.045Z,900
2022-12-24T07:43:24.996Z,972
2022-12-24T07:44:25.258Z,976
2022-12-24T07:45:25.235Z,1052
2022-12-24T07:46:25.737Z,1060
2022-12-24T07:47:25.228Z,1124
2022-12-24T07:48:25.456Z,1276
2022-12-24T07:49:25.513Z,1360
2022-12-24T07:50:25.154Z,1244
2022-12-24T07:51:25.401Z,1128
2022-12-24T07:52:25.391Z,1092
2022-12-24T07:53:25.377Z,1016
2022-12-24T07:54:25.343Z,956
2022-12-24T07:55:25.092Z,984
2022-12-24T07:56:25.055Z,1088
2022-12-24T07:57:25.041Z,1168
2022-12-24T07:58:24.821Z,1268
2022-12-24T07:59:25.007Z,1368
2022-12-24T08:00:25.020Z,1568
2022-12-24T08:01:25.264Z,1640
2022-12-24T08:02:26.607Z,1556
2022-12-24T08:03:25.753Z,1488
2022-12-24T08:04:25.209Z,1496
2022-12-24T08:05:25.334Z,1632
2022-12-24T08:06:24.940Z,1928
2022-12-24T08:07:24.664Z,2300
2022-12-24T08:08:24.892Z,2336
2022-12-24T08:09:26.027Z,2096
2022-12-24T08:10:25.779Z,2100
2022-12-24T08:11:25.809Z,2220
2022-12-24T08:12:25.730Z,2160
2022-12-24T08:13:26.037Z,2188
2022-12-24T08:14:26.008Z,2296
2022-12-24T08:15:25.719Z,2376
2022-12-24T08:16:25.677Z,2328
2022-12-24T08:17:32.459Z,2192
2022-12-24T08:18:25.895Z,2208
2022-12-24T08:19:25.370Z,2232
2022-12-24T08:20:25.612Z,2152
2022-12-24T08:21:26.025Z,2056
2022-12-24T08:22:25.871Z,1928
2022-12-24T08:23:25.320Z,1780
2022-12-24T08:24:25.561Z,1596
2022-12-24T08:25:25.819Z,1324
2022-12-24T08:26:25.775Z,1300
2022-12-24T08:27:25.793Z,1248
2022-12-24T08:28:25.793Z,1080
2022-12-24T08:29:25.733Z,1028
2022-12-24T08:30:28.339Z,1060
2022-12-24T08:31:26.465Z,1172
2022-12-24T08:32:26.204Z,1252
2022-12-24T08:33:26.183Z,1316
2022-12-24T08:34:26.189Z,1264
2022-12-24T08:35:25.662Z,1388
2022-12-24T08:36:25.935Z,1628
2022-12-24T08:37:26.252Z,1512
2022-12-24T08:38:25.355Z,1596
2022-12-24T08:39:25.585Z,1604
2022-12-24T08:40:25.809Z,1612
2022-12-24T08:41:25.896Z,1516
2022-12-24T08:42:26.014Z,1168
2022-12-24T08:43:25.838Z,1124
2022-12-24T08:44:26.078Z,1272
2022-12-24T08:45:25.871Z,1412
2022-12-24T08:46:26.572Z,1552
2022-12-24T08:47:25.770Z,1540
2022-12-24T08:48:25.999Z,1396
2022-12-24T08:49:25.961Z,1700
2022-12-24T08:50:25.946Z,2204
2022-12-24T08:51:25.682Z,2604
2022-12-24T08:52:25.408Z,2728
2022-12-24T08:53:26.123Z,2668
2022-12-24T08:54:25.404Z,2816
2022-12-24T08:55:25.624Z,2880
2022-12-24T08:56:25.862Z,2672
2022-12-24T08:57:25.593Z,2380
2022-12-24T08:58:25.834Z,2012
2022-12-24T08:59:25.821Z,1656
2022-12-24T09:00:25.073Z,1644
2022-12-24T09:01:26.071Z,1856
2022-12-24T09:02:26.701Z,2136
2022-12-24T09:03:34.508Z,2488
2022-12-24T09:04:25.516Z,2564
2022-12-24T09:05:25.757Z,2560
2022-12-24T09:06:25.481Z,2488
2022-12-24T09:07:25.434Z,2312
2022-12-24T09:08:25.457Z,2128
2022-12-24T09:09:25.813Z,2016
2022-12-24T09:10:25.417Z,1804
2022-12-24T09:11:25.391Z,1532
2022-12-24T09:12:25.630Z,1436
2022-12-24T09:13:25.371Z,1412
2022-12-24T09:14:25.349Z,1628
2022-12-24T09:15:25.672Z,1520
2022-12-24T09:16:25.289Z,1452
2022-12-24T09:17:25.042Z,1380
2022-12-24T09:18:25.031Z,1512
2022-12-24T09:19:24.767Z,1612
2022-12-24T09:20:25.157Z,1504
2022-12-24T09:21:25.536Z,1452
2022-12-24T09:22:25.485Z,1652
2022-12-24T09:23:25.466Z,1684
2022-12-24T09:24:25.307Z,1740
2022-12-24T09:25:25.689Z,1636
2022-12-24T09:26:25.173Z,1588
2022-12-24T09:27:25.437Z,1696
2022-12-24T09:28:25.175Z,1432
2022-12-24T09:29:25.138Z,1860
2022-12-24T09:30:25.322Z,2524
2022-12-24T09:31:25.188Z,2672
2022-12-24T09:32:25.253Z,2504
2022-12-24T09:33:25.071Z,2764
2022-12-24T09:34:33.127Z,2952
2022-12-24T09:35:25.294Z,2952
2022-12-24T09:36:25.319Z,2684
2022-12-24T09:37:25.048Z,2352
2022-12-24T09:38:25.028Z,2308
2022-12-24T09:39:24.997Z,2140
2022-12-24T09:40:24.985Z,1792
2022-12-24T09:41:25.539Z,2396
2022-12-24T09:42:25.227Z,2508
2022-12-24T09:43:25.212Z,2568
2022-12-24T09:44:24.949Z,2480
2022-12-24T09:45:24.671Z,2092
2022-12-24T09:46:25.111Z,2064
2022-12-24T09:47:24.885Z,2092
2022-12-24T09:48:24.862Z,2108
2022-12-24T09:49:25.150Z,2204
2022-12-24T09:50:25.118Z,2036
2022-12-24T09:51:24.553Z,1660
2022-12-24T09:52:24.804Z,1444
2022-12-24T09:53:25.043Z,1328
2022-12-24T09:54:25.033Z,1244
2022-12-24T09:55:25.007Z,1164
2022-12-24T09:56:24.781Z,1112
2022-12-24T09:57:25.075Z,1100
2022-12-24T09:58:24.965Z,1148
2022-12-24T09:59:24.711Z,1232
2022-12-24T10:00:24.444Z,1352
2022-12-24T10:01:25.703Z,1552
2022-12-24T10:02:25.648Z,1880
2022-12-24T10:03:25.077Z,2404
2022-12-24T10:04:24.886Z,2708
2022-12-24T10:05:24.642Z,2736
2022-12-24T10:06:33.578Z,2520
2022-12-24T10:07:24.860Z,2488
2022-12-24T10:08:24.830Z,2880
2022-12-24T10:09:24.550Z,3240
2022-12-24T10:10:24.555Z,3288
2022-12-24T10:11:24.271Z,3192
2022-12-24T10:12:24.796Z,3140
2022-12-24T10:13:24.863Z,2928
2022-12-24T10:14:24.512Z,3012
2022-12-24T10:15:24.494Z,3424
2022-12-24T10:16:24.670Z,3288
2022-12-24T10:17:24.818Z,3448
2022-12-24T10:18:24.444Z,3440
2022-12-24T10:19:24.668Z,3456
2022-12-24T10:20:24.165Z,3520
2022-12-24T10:21:24.131Z,3276
2022-12-24T10:22:24.371Z,3068
2022-12-24T10:23:24.619Z,2808
2022-12-24T10:24:24.601Z,2692
2022-12-24T10:25:24.567Z,2912
2022-12-24T10:26:24.586Z,3120
2022-12-24T10:27:24.329Z,3336
2022-12-24T10:28:24.577Z,3800
2022-12-24T10:29:24.696Z,4144
2022-12-24T10:30:25.012Z,4052
2022-12-24T10:31:24.577Z,4072
2022-12-24T10:32:24.501Z,4024
2022-12-24T10:33:24.467Z,4064
2022-12-24T10:34:24.221Z,4172
2022-12-24T10:35:24.477Z,4640
2022-12-24T10:36:24.171Z,5036
2022-12-24T10:37:24.152Z,4716
2022-12-24T10:38:24.130Z,3780
2022-12-24T10:39:24.147Z,3280
2022-12-24T10:40:24.187Z,3068
2022-12-24T10:41:24.084Z,3068
2022-12-24T10:42:24.104Z,3204
2022-12-24T10:43:24.338Z,3288
2022-12-24T10:44:24.338Z,2936
2022-12-24T10:45:24.400Z,2624
2022-12-24T10:46:24.556Z,2224
2022-12-24T10:47:24.304Z,2272
2022-12-24T10:48:24.262Z,2396
2022-12-24T10:49:23.984Z,2100
2022-12-24T10:50:24.236Z,1760
2022-12-24T10:51:24.221Z,1744
2022-12-24T10:52:24.017Z,1680
2022-12-24T10:53:23.728Z,1648
2022-12-24T10:54:32.918Z,1596
2022-12-24T10:55:23.940Z,1616
2022-12-24T10:56:23.699Z,1684
2022-12-24T10:57:24.148Z,2184
2022-12-24T10:58:23.885Z,2828
2022-12-24T10:59:23.900Z,2984
2022-12-24T11:00:25.939Z,2768
2022-12-24T11:01:24.848Z,3784
2022-12-24T11:02:25.074Z,3848
2022-12-24T11:03:24.481Z,4092
2022-12-24T11:04:23.832Z,3856
2022-12-24T11:05:24.032Z,3900
2022-12-24T11:06:23.745Z,4136
2022-12-24T11:07:23.746Z,4280
2022-12-24T11:08:23.716Z,4060
2022-12-24T11:09:24.037Z,4108
2022-12-24T11:10:23.515Z,4072
2022-12-24T11:11:23.700Z,3924
2022-12-24T11:12:23.711Z,4088
2022-12-24T11:13:44.883Z,4516
2022-12-24T11:14:23.929Z,4548
2022-12-24T11:15:23.943Z,4040
2022-12-24T11:16:23.928Z,3308
2022-12-24T11:17:24.029Z,3324
2022-12-24T11:18:23.351Z,3708
2022-12-24T11:19:23.907Z,3392
2022-12-24T11:20:24.012Z,2956
2022-12-24T11:21:23.313Z,2888
2022-12-24T11:22:23.772Z,2560
2022-12-24T11:23:23.779Z,2476
2022-12-24T11:24:23.741Z,2600
2022-12-24T11:25:23.484Z,2696
2022-12-24T11:26:23.738Z,3652
2022-12-24T11:27:23.456Z,4576
2022-12-24T11:28:23.221Z,4420
2022-12-24T11:29:23.786Z,3496
2022-12-24T11:30:24.043Z,2992
2022-12-24T11:31:24.093Z,2356
2022-12-24T11:32:23.438Z,2200
2022-12-24T11:33:23.778Z,2128
2022-12-24T11:34:23.375Z,2384
2022-12-24T11:35:23.390Z,2440
2022-12-24T11:36:23.595Z,2360
2022-12-24T11:37:23.606Z,2256
2022-12-24T11:38:23.065Z,2620
2022-12-24T11:39:23.321Z,2620
2022-12-24T11:40:23.555Z,2992
2022-12-24T11:41:23.548Z,2756
2022-12-24T11:42:22.756Z,3428
2022-12-24T11:43:22.786Z,3244
2022-12-24T11:44:23.229Z,3152
2022-12-24T11:45:23.236Z,3008
2022-12-24T11:46:23.712Z,2980
2022-12-24T11:47:23.187Z,2928
2022-12-24T11:48:22.916Z,2748
2022-12-24T11:49:23.513Z,2520
2022-12-24T11:50:25.797Z,2552
2022-12-24T11:51:23.413Z,2820
2022-12-24T11:52:23.381Z,3364
2022-12-24T11:53:23.401Z,3648
2022-12-24T11:54:22.913Z,3536
2022-12-24T11:55:24.146Z,3564
2022-12-24T11:56:23.323Z,3664
2022-12-24T11:57:23.058Z,3712
2022-12-24T11:58:22.812Z,3380
2022-12-24T11:59:23.294Z,2832
2022-12-24T12:00:22.815Z,2260
2022-12-24T12:01:23.874Z,2152
2022-12-24T12:02:23.619Z,2016
2022-12-24T12:03:22.875Z,1860
2022-12-24T12:04:23.468Z,2008
2022-12-24T12:05:23.461Z,2192
2022-12-24T12:06:22.949Z,2496
2022-12-24T12:07:23.042Z,2800
2022-12-24T12:08:23.533Z,2816
2022-12-24T12:09:23.012Z,2948
2022-12-24T12:10:23.544Z,2996
2022-12-24T12:11:23.257Z,3040
2022-12-24T12:12:23.253Z,3008
2022-12-24T12:13:23.058Z,2928
2022-12-24T12:14:23.440Z,2676
2022-12-24T12:15:23.222Z,2544
2022-12-24T12:16:23.591Z,2564
2022-12-24T12:17:23.420Z,2848
2022-12-24T12:18:23.189Z,3172
2022-12-24T12:19:23.399Z,3116
2022-12-24T12:20:23.449Z,3080
2022-12-24T12:21:23.454Z,3364
2022-12-24T12:22:23.344Z,3592
2022-12-24T12:23:23.115Z,3776
2022-12-24T12:24:26.802Z,3712
2022-12-24T12:25:23.320Z,3488
2022-12-24T12:26:23.047Z,3384
2022-12-24T12:27:23.335Z,2944
2022-12-24T12:28:23.032Z,2724
2022-12-24T12:29:23.039Z,2372
2022-12-24T12:30:23.052Z,2368
2022-12-24T12:31:23.995Z,2644
2022-12-24T12:32:23.027Z,2860
2022-12-24T12:33:23.049Z,3040
2022-12-24T12:34:23.198Z,3176
2022-12-24T12:35:22.914Z,2688
2022-12-24T12:36:22.940Z,2156
2022-12-24T12:37:23.282Z,1704
2022-12-24T12:38:22.894Z,1820
2022-12-24T12:39:22.867Z,2068
2022-12-24T12:40:22.859Z,2244
2022-12-24T12:41:23.108Z,2988
2022-12-24T12:42:23.094Z,3020
2022-12-24T12:43:23.076Z,3208
2022-12-24T12:44:23.061Z,3780
2022-12-24T12:45:22.787Z,3568
2022-12-24T12:46:23.058Z,3376
2022-12-24T12:47:23.000Z,3576
2022-12-24T12:48:23.035Z,4036
2022-12-24T12:49:22.215Z,3372
2022-12-24T12:50:22.728Z,2772
2022-12-24T12:51:22.724Z,2612
2022-12-24T12:52:22.693Z,2096
2022-12-24T12:53:23.082Z,1672
2022-12-24T12:54:22.957Z,1492
2022-12-24T12:55:30.859Z,1468
2022-12-24T12:56:22.908Z,1608
2022-12-24T12:57:22.866Z,1880
2022-12-24T12:58:22.891Z,2268
2022-12-24T12:59:22.621Z,2624
2022-12-24T13:00:22.598Z,2744
2022-12-24T13:01:26.076Z,2532
2022-12-24T13:02:23.338Z,1996
2022-12-24T13:03:22.943Z,1728
2022-12-24T13:04:22.530Z,1616
2022-12-24T13:05:22.554Z,1536
2022-12-24T13:06:22.276Z,1912
2022-12-24T13:07:22.752Z,2316
2022-12-24T13:08:22.723Z,2400
2022-12-24T13:09:22.835Z,2276
2022-12-24T13:10:22.487Z,2172
2022-12-24T13:11:22.175Z,1900
2022-12-24T13:12:22.674Z,1468
2022-12-24T13:13:27.371Z,1152
2022-12-24T13:14:22.654Z,1480
2022-12-24T13:15:22.365Z,1152
2022-12-24T13:16:23.011Z,1056
2022-12-24T13:17:22.358Z,888
2022-12-24T13:18:22.596Z,912
2022-12-24T13:19:22.092Z,1116
2022-12-24T13:20:22.696Z,1224
2022-12-24T13:21:22.325Z,1224
2022-12-24T13:22:22.295Z,1268
2022-12-24T13:23:22.032Z,1356
2022-12-24T13:24:22.312Z,1360
2022-12-24T13:25:22.616Z,1220
2022-12-24T13:26:22.242Z,928
2022-12-24T13:27:22.469Z,1012
2022-12-24T13:28:22.201Z,984
2022-12-24T13:29:22.195Z,916
2022-12-24T13:30:22.253Z,1140
2022-12-24T13:31:22.632Z,1444
2022-12-24T13:32:21.965Z,1640
2022-12-24T13:33:21.887Z,1520
2022-12-24T13:34:22.414Z,1260
2022-12-24T13:35:22.414Z,1296
2022-12-24T13:36:21.913Z,1368
2022-12-24T13:37:22.396Z,1600
2022-12-24T13:38:22.061Z,1940
2022-12-24T13:39:22.078Z,2056
2022-12-24T13:40:22.314Z,1868
2022-12-24T13:41:22.372Z,1604
2022-12-24T13:42:22.016Z,1544
2022-12-24T13:43:21.744Z,1596
2022-12-24T13:44:22.257Z,1316
2022-12-24T13:45:22.241Z,1004
2022-12-24T13:46:22.366Z,1048
2022-12-24T13:47:25.514Z,1416
2022-12-24T13:48:22.207Z,1596
2022-12-24T13:49:21.939Z,1604
2022-12-24T13:50:21.651Z,1532
2022-12-24T13:51:22.155Z,1472
2022-12-24T13:52:22.124Z,1436
2022-12-24T13:53:21.924Z,1376
2022-12-24T13:54:21.849Z,1364
2022-12-24T13:55:22.096Z,1460
2022-12-24T13:56:22.079Z,1476
2022-12-24T13:57:22.158Z,1456
2022-12-24T13:58:21.536Z,1360
2022-12-24T13:59:21.775Z,1276
2022-12-24T14:00:22.086Z,1252
2022-12-24T14:01:22.117Z,1276
2022-12-24T14:02:22.890Z,1344
2022-12-24T14:03:22.277Z,1404
2022-12-24T14:04:21.722Z,1456
2022-12-24T14:05:27.996Z,1460
2022-12-24T14:06:21.963Z,1472
2022-12-24T14:07:21.395Z,1448
2022-12-24T14:08:21.652Z,1444
2022-12-24T14:09:21.885Z,1432
2022-12-24T14:10:21.384Z,1348
2022-12-24T14:11:21.651Z,1232
2022-12-24T14:12:30.885Z,1184
2022-12-24T14:13:21.615Z,1164
2022-12-24T14:14:21.618Z,1128
2022-12-24T14:15:21.575Z,1212
2022-12-24T14:16:22.040Z,1340
2022-12-24T14:17:21.779Z,1388
2022-12-24T14:18:21.529Z,1464
2022-12-24T14:19:21.248Z,1508
2022-12-24T14:20:21.735Z,1512